sensor_id;sensor_type;location;lat;lon;timestamp;temperature;humidity
58413;DHT22;44209;52.952;6.790;2024-03-08T00:00:04;2.20;99.90
58413;DHT22;44209;52.952;6.790;2024-03-08T00:02:38;2.20;99.90
58413;DHT22;44209;52.952;6.790;2024-03-08T00:05:05;2.20;99.90
58413;DHT22;44209;52.952;6.790;2024-03-08T00:07:31;2.10;99.90
58413;DHT22;44209;52.952;6.790;2024-03-08T00:09:58;2.10;99.90
58413;DHT22;44209;52.952;6.790;2024-03-08T00:12:23;2.10;99.90
58413;DHT22;44209;52.952;6.790;2024-03-08T00:14:50;2.00;99.90
58413;DHT22;44209;52.952;6.790;2024-03-08T00:17:16;2.10;99.90
58413;DHT22;44209;52.952;6.790;2024-03-08T00:19:41;2.00;99.90
58413;DHT22;44209;52.952;6.790;2024-03-08T00:22:07;2.00;99.90
58413;DHT22;44209;52.952;6.790;2024-03-08T00:24:33;2.00;99.90
58413;DHT22;44209;52.952;6.790;2024-03-08T00:26:59;2.00;99.90
58413;DHT22;44209;52.952;6.790;2024-03-08T00:29:25;1.90;99.90
58413;DHT22;44209;52.952;6.790;2024-03-08T00:31:50;1.90;99.90
58413;DHT22;44209;52.952;6.790;2024-03-08T00:34:16;1.90;99.90
58413;DHT22;44209;52.952;6.790;2024-03-08T00:36:42;2.00;99.90
58413;DHT22;44209;52.952;6.790;2024-03-08T00:39:08;1.90;99.90
58413;DHT22;44209;52.952;6.790;2024-03-08T00:41:33;1.80;99.90
58413;DHT22;44209;52.952;6.790;2024-03-08T00:43:59;1.80;99.90
58413;DHT22;44209;52.952;6.790;2024-03-08T00:46:25;1.80;99.90
58413;DHT22;44209;52.952;6.790;2024-03-08T00:48:53;1.90;99.90
58413;DHT22;44209;52.952;6.790;2024-03-08T00:51:18;1.80;99.90
58413;DHT22;44209;52.952;6.790;2024-03-08T00:53:44;1.80;99.90
58413;DHT22;44209;52.952;6.790;2024-03-08T00:56:10;1.80;99.90
58413;DHT22;44209;52.952;6.790;2024-03-08T00:58:38;1.80;99.90
58413;DHT22;44209;52.952;6.790;2024-03-08T01:01:04;1.80;99.90
58413;DHT22;44209;52.952;6.790;2024-03-08T01:03:33;1.80;99.90
58413;DHT22;44209;52.952;6.790;2024-03-08T01:06:00;1.80;99.90
58413;DHT22;44209;52.952;6.790;2024-03-08T01:08:29;1.80;99.90
58413;DHT22;44209;52.952;6.790;2024-03-08T01:10:55;1.80;99.90
58413;DHT22;44209;52.952;6.790;2024-03-08T01:13:20;1.80;99.90
58413;DHT22;44209;52.952;6.790;2024-03-08T01:15:46;1.80;99.90
58413;DHT22;44209;52.952;6.790;2024-03-08T01:18:12;1.80;99.90
58413;DHT22;44209;52.952;6.790;2024-03-08T01:20:38;1.80;99.90
58413;DHT22;44209;52.952;6.790;2024-03-08T01:23:05;1.80;99.90
58413;DHT22;44209;52.952;6.790;2024-03-08T01:25:33;1.80;99.90
58413;DHT22;44209;52.952;6.790;2024-03-08T01:27:59;1.80;99.90
58413;DHT22;44209;52.952;6.790;2024-03-08T01:30:25;1.70;99.90
58413;DHT22;44209;52.952;6.790;2024-03-08T01:32:50;1.70;99.90
58413;DHT22;44209;52.952;6.790;2024-03-08T01:35:16;1.70;99.90
58413;DHT22;44209;52.952;6.790;2024-03-08T01:37:43;1.70;99.90
58413;DHT22;44209;52.952;6.790;2024-03-08T01:40:09;1.70;99.90
58413;DHT22;44209;52.952;6.790;2024-03-08T01:42:35;1.70;99.90
58413;DHT22;44209;52.952;6.790;2024-03-08T01:45:07;1.70;99.90
58413;DHT22;44209;52.952;6.790;2024-03-08T01:47:33;1.70;99.90
58413;DHT22;44209;52.952;6.790;2024-03-08T01:50:00;1.70;99.90
58413;DHT22;44209;52.952;6.790;2024-03-08T01:52:29;1.60;99.90
58413;DHT22;44209;52.952;6.790;2024-03-08T01:54:59;1.60;99.90
58413;DHT22;44209;52.952;6.790;2024-03-08T01:57:27;1.60;99.90
58413;DHT22;44209;52.952;6.790;2024-03-08T01:59:54;1.60;99.90
58413;DHT22;44209;52.952;6.790;2024-03-08T02:02:22;1.60;99.90
58413;DHT22;44209;52.952;6.790;2024-03-08T02:04:48;1.50;99.90
58413;DHT22;44209;52.952;6.790;2024-03-08T02:07:18;1.60;99.90
58413;DHT22;44209;52.952;6.790;2024-03-08T02:09:44;1.50;99.90
58413;DHT22;44209;52.952;6.790;2024-03-08T02:12:10;1.50;99.90
58413;DHT22;44209;52.952;6.790;2024-03-08T02:14:35;1.50;99.90
58413;DHT22;44209;52.952;6.790;2024-03-08T02:17:02;1.50;99.90
58413;DHT22;44209;52.952;6.790;2024-03-08T02:19:28;1.50;99.90
58413;DHT22;44209;52.952;6.790;2024-03-08T02:21:54;1.40;99.90
58413;DHT22;44209;52.952;6.790;2024-03-08T02:24:21;1.40;99.90
58413;DHT22;44209;52.952;6.790;2024-03-08T02:26:46;1.40;99.90
58413;DHT22;44209;52.952;6.790;2024-03-08T02:29:12;1.40;99.90
58413;DHT22;44209;52.952;6.790;2024-03-08T02:31:40;1.40;99.90
58413;DHT22;44209;52.952;6.790;2024-03-08T02:34:05;1.30;99.90
58413;DHT22;44209;52.952;6.790;2024-03-08T02:36:31;1.30;99.90
58413;DHT22;44209;52.952;6.790;2024-03-08T02:39:02;1.30;99.90
58413;DHT22;44209;52.952;6.790;2024-03-08T02:41:28;1.40;99.90
58413;DHT22;44209;52.952;6.790;2024-03-08T02:43:54;1.40;99.90
58413;DHT22;44209;52.952;6.790;2024-03-08T02:46:20;1.30;99.90
58413;DHT22;44209;52.952;6.790;2024-03-08T02:48:46;1.30;99.90
58413;DHT22;44209;52.952;6.790;2024-03-08T02:51:12;1.20;99.90
58413;DHT22;44209;52.952;6.790;2024-03-08T02:53:39;1.20;99.90
58413;DHT22;44209;52.952;6.790;2024-03-08T02:56:05;1.20;99.90
58413;DHT22;44209;52.952;6.790;2024-03-08T02:58:34;1.10;99.90
58413;DHT22;44209;52.952;6.790;2024-03-08T03:01:00;1.10;99.90
58413;DHT22;44209;52.952;6.790;2024-03-08T03:03:25;1.10;99.90
58413;DHT22;44209;52.952;6.790;2024-03-08T03:05:52;1.10;99.90
58413;DHT22;44209;52.952;6.790;2024-03-08T03:08:21;1.10;99.90
58413;DHT22;44209;52.952;6.790;2024-03-08T03:10:47;1.10;99.90
58413;DHT22;44209;52.952;6.790;2024-03-08T03:13:13;1.10;99.90
58413;DHT22;44209;52.952;6.790;2024-03-08T03:15:40;1.10;99.90
58413;DHT22;44209;52.952;6.790;2024-03-08T03:18:08;1.10;99.90
58413;DHT22;44209;52.952;6.790;2024-03-08T03:20:34;1.00;99.90
58413;DHT22;44209;52.952;6.790;2024-03-08T03:23:06;1.00;99.90
58413;DHT22;44209;52.952;6.790;2024-03-08T03:25:34;1.00;99.90
58413;DHT22;44209;52.952;6.790;2024-03-08T03:28:01;1.00;99.90
58413;DHT22;44209;52.952;6.790;2024-03-08T03:30:27;1.00;99.90
58413;DHT22;44209;52.952;6.790;2024-03-08T03:33:01;1.00;99.90
58413;DHT22;44209;52.952;6.790;2024-03-08T03:35:30;1.00;99.90
58413;DHT22;44209;52.952;6.790;2024-03-08T03:37:55;1.00;99.90
58413;DHT22;44209;52.952;6.790;2024-03-08T03:40:32;1.00;99.90
58413;DHT22;44209;52.952;6.790;2024-03-08T03:42:59;1.00;99.90
58413;DHT22;44209;52.952;6.790;2024-03-08T03:45:25;1.00;99.90
58413;DHT22;44209;52.952;6.790;2024-03-08T03:47:51;0.90;99.90
58413;DHT22;44209;52.952;6.790;2024-03-08T03:50:20;1.00;99.90
58413;DHT22;44209;52.952;6.790;2024-03-08T03:52:47;0.90;99.90
58413;DHT22;44209;52.952;6.790;2024-03-08T03:55:14;1.00;99.90
58413;DHT22;44209;52.952;6.790;2024-03-08T03:57:40;1.00;99.90
58413;DHT22;44209;52.952;6.790;2024-03-08T04:00:07;0.90;99.90
58413;DHT22;44209;52.952;6.790;2024-03-08T04:02:39;0.90;99.90
58413;DHT22;44209;52.952;6.790;2024-03-08T04:05:09;0.90;99.90
58413;DHT22;44209;52.952;6.790;2024-03-08T04:07:35;0.90;99.90
58413;DHT22;44209;52.952;6.790;2024-03-08T04:10:02;0.90;99.90
58413;DHT22;44209;52.952;6.790;2024-03-08T04:12:28;0.90;99.90
58413;DHT22;44209;52.952;6.790;2024-03-08T04:14:57;0.90;99.90
58413;DHT22;44209;52.952;6.790;2024-03-08T04:17:23;0.90;99.90
58413;DHT22;44209;52.952;6.790;2024-03-08T04:19:52;0.90;99.90
58413;DHT22;44209;52.952;6.790;2024-03-08T04:22:18;0.90;99.90
58413;DHT22;44209;52.952;6.790;2024-03-08T04:24:45;0.90;99.90
58413;DHT22;44209;52.952;6.790;2024-03-08T04:27:11;0.90;99.90
58413;DHT22;44209;52.952;6.790;2024-03-08T04:29:37;0.90;99.90
58413;DHT22;44209;52.952;6.790;2024-03-08T04:32:04;0.90;99.90
58413;DHT22;44209;52.952;6.790;2024-03-08T04:34:33;0.90;99.90
58413;DHT22;44209;52.952;6.790;2024-03-08T04:37:03;0.90;99.90
58413;DHT22;44209;52.952;6.790;2024-03-08T04:39:30;0.90;99.90
58413;DHT22;44209;52.952;6.790;2024-03-08T04:42:02;0.90;99.90
58413;DHT22;44209;52.952;6.790;2024-03-08T04:44:38;0.90;99.90
58413;DHT22;44209;52.952;6.790;2024-03-08T04:47:04;0.80;99.90
58413;DHT22;44209;52.952;6.790;2024-03-08T04:49:34;0.90;99.90
58413;DHT22;44209;52.952;6.790;2024-03-08T04:52:04;0.80;99.90
58413;DHT22;44209;52.952;6.790;2024-03-08T04:54:33;0.80;99.90
58413;DHT22;44209;52.952;6.790;2024-03-08T04:56:58;0.80;99.90
58413;DHT22;44209;52.952;6.790;2024-03-08T04:59:27;0.80;99.90
58413;DHT22;44209;52.952;6.790;2024-03-08T05:01:53;0.80;99.90
58413;DHT22;44209;52.952;6.790;2024-03-08T05:04:19;0.70;99.90
58413;DHT22;44209;52.952;6.790;2024-03-08T05:06:45;0.70;99.90
58413;DHT22;44209;52.952;6.790;2024-03-08T05:09:10;0.70;99.90
58413;DHT22;44209;52.952;6.790;2024-03-08T05:11:43;0.70;99.90
58413;DHT22;44209;52.952;6.790;2024-03-08T05:14:13;0.70;99.90
58413;DHT22;44209;52.952;6.790;2024-03-08T05:16:45;0.70;99.90
58413;DHT22;44209;52.952;6.790;2024-03-08T05:19:18;0.60;99.90
58413;DHT22;44209;52.952;6.790;2024-03-08T05:21:48;0.60;99.90
58413;DHT22;44209;52.952;6.790;2024-03-08T05:24:14;0.60;99.90
58413;DHT22;44209;52.952;6.790;2024-03-08T05:26:41;0.70;99.90
58413;DHT22;44209;52.952;6.790;2024-03-08T05:29:10;0.70;99.90
58413;DHT22;44209;52.952;6.790;2024-03-08T05:31:51;0.70;99.90
58413;DHT22;44209;52.952;6.790;2024-03-08T05:34:20;0.80;99.90
58413;DHT22;44209;52.952;6.790;2024-03-08T05:36:47;0.80;99.90
58413;DHT22;44209;52.952;6.790;2024-03-08T05:39:16;0.80;99.90
58413;DHT22;44209;52.952;6.790;2024-03-08T05:41:43;0.80;99.90
58413;DHT22;44209;52.952;6.790;2024-03-08T05:44:09;0.80;99.90
58413;DHT22;44209;52.952;6.790;2024-03-08T05:46:36;0.80;99.90
58413;DHT22;44209;52.952;6.790;2024-03-08T05:49:03;0.70;99.90
58413;DHT22;44209;52.952;6.790;2024-03-08T05:51:31;0.70;99.90
58413;DHT22;44209;52.952;6.790;2024-03-08T05:54:03;0.70;99.90
58413;DHT22;44209;52.952;6.790;2024-03-08T05:56:31;0.70;99.90
58413;DHT22;44209;52.952;6.790;2024-03-08T05:58:57;0.70;99.90
58413;DHT22;44209;52.952;6.790;2024-03-08T06:01:26;0.70;99.90
58413;DHT22;44209;52.952;6.790;2024-03-08T06:03:55;0.70;99.90
58413;DHT22;44209;52.952;6.790;2024-03-08T06:06:25;0.70;99.90
58413;DHT22;44209;52.952;6.790;2024-03-08T06:08:52;0.70;99.90
58413;DHT22;44209;52.952;6.790;2024-03-08T06:11:19;0.70;99.90
58413;DHT22;44209;52.952;6.790;2024-03-08T06:13:45;0.70;99.90
58413;DHT22;44209;52.952;6.790;2024-03-08T06:16:11;0.70;99.90
58413;DHT22;44209;52.952;6.790;2024-03-08T06:18:38;0.70;99.90
58413;DHT22;44209;52.952;6.790;2024-03-08T06:21:08;0.70;99.90
58413;DHT22;44209;52.952;6.790;2024-03-08T06:23:42;0.60;99.90
58413;DHT22;44209;52.952;6.790;2024-03-08T06:26:08;0.70;99.90
58413;DHT22;44209;52.952;6.790;2024-03-08T06:28:34;0.60;99.90
58413;DHT22;44209;52.952;6.790;2024-03-08T06:31:03;0.70;99.90
58413;DHT22;44209;52.952;6.790;2024-03-08T06:33:29;0.70;99.90
58413;DHT22;44209;52.952;6.790;2024-03-08T06:35:55;0.60;99.90
58413;DHT22;44209;52.952;6.790;2024-03-08T06:38:26;0.60;99.90
58413;DHT22;44209;52.952;6.790;2024-03-08T06:40:52;0.60;99.90
58413;DHT22;44209;52.952;6.790;2024-03-08T06:43:18;0.70;99.90
58413;DHT22;44209;52.952;6.790;2024-03-08T06:45:47;0.70;99.90
58413;DHT22;44209;52.952;6.790;2024-03-08T06:48:17;0.70;99.90
58413;DHT22;44209;52.952;6.790;2024-03-08T06:50:47;0.80;99.90
58413;DHT22;44209;52.952;6.790;2024-03-08T06:53:13;0.80;99.90
58413;DHT22;44209;52.952;6.790;2024-03-08T06:55:39;0.80;99.90
58413;DHT22;44209;52.952;6.790;2024-03-08T06:58:05;0.80;99.90
58413;DHT22;44209;52.952;6.790;2024-03-08T07:00:33;0.80;99.90
58413;DHT22;44209;52.952;6.790;2024-03-08T07:02:59;0.90;99.90
58413;DHT22;44209;52.952;6.790;2024-03-08T07:05:28;0.90;99.90
58413;DHT22;44209;52.952;6.790;2024-03-08T07:07:54;1.00;99.90
58413;DHT22;44209;52.952;6.790;2024-03-08T07:10:23;1.00;99.90
58413;DHT22;44209;52.952;6.790;2024-03-08T07:12:52;1.00;99.90
58413;DHT22;44209;52.952;6.790;2024-03-08T07:15:18;1.10;99.90
58413;DHT22;44209;52.952;6.790;2024-03-08T07:17:48;1.10;99.90
58413;DHT22;44209;52.952;6.790;2024-03-08T07:20:14;1.20;99.90
58413;DHT22;44209;52.952;6.790;2024-03-08T07:22:45;1.30;99.90
58413;DHT22;44209;52.952;6.790;2024-03-08T07:25:13;1.30;99.90
58413;DHT22;44209;52.952;6.790;2024-03-08T07:27:55;1.40;99.90
58413;DHT22;44209;52.952;6.790;2024-03-08T07:30:23;1.40;99.90
58413;DHT22;44209;52.952;6.790;2024-03-08T07:33:10;1.40;99.90
58413;DHT22;44209;52.952;6.790;2024-03-08T07:35:39;1.50;99.90
58413;DHT22;44209;52.952;6.790;2024-03-08T07:38:09;1.60;99.90
58413;DHT22;44209;52.952;6.790;2024-03-08T07:40:39;1.60;99.90
58413;DHT22;44209;52.952;6.790;2024-03-08T07:43:09;1.70;99.90
58413;DHT22;44209;52.952;6.790;2024-03-08T07:45:36;1.80;99.90
58413;DHT22;44209;52.952;6.790;2024-03-08T07:48:03;1.80;99.90
58413;DHT22;44209;52.952;6.790;2024-03-08T07:50:29;1.90;99.90
58413;DHT22;44209;52.952;6.790;2024-03-08T07:52:55;1.90;99.90
58413;DHT22;44209;52.952;6.790;2024-03-08T07:55:21;2.00;99.90
58413;DHT22;44209;52.952;6.790;2024-03-08T07:57:49;2.10;99.90
58413;DHT22;44209;52.952;6.790;2024-03-08T08:00:16;2.20;99.90
58413;DHT22;44209;52.952;6.790;2024-03-08T08:02:45;2.20;99.90
58413;DHT22;44209;52.952;6.790;2024-03-08T08:05:11;2.30;99.90
58413;DHT22;44209;52.952;6.790;2024-03-08T08:07:37;2.30;99.90
58413;DHT22;44209;52.952;6.790;2024-03-08T08:10:03;2.40;99.90
58413;DHT22;44209;52.952;6.790;2024-03-08T08:12:31;2.40;99.90
58413;DHT22;44209;52.952;6.790;2024-03-08T08:15:00;2.50;99.90
58413;DHT22;44209;52.952;6.790;2024-03-08T08:17:25;2.50;99.90
58413;DHT22;44209;52.952;6.790;2024-03-08T08:19:51;2.60;99.90
58413;DHT22;44209;52.952;6.790;2024-03-08T08:22:17;2.60;99.90
58413;DHT22;44209;52.952;6.790;2024-03-08T08:24:43;2.70;99.90
58413;DHT22;44209;52.952;6.790;2024-03-08T08:27:09;2.70;99.90
58413;DHT22;44209;52.952;6.790;2024-03-08T08:29:37;2.80;99.90
58413;DHT22;44209;52.952;6.790;2024-03-08T08:32:03;2.80;99.90
58413;DHT22;44209;52.952;6.790;2024-03-08T08:34:29;2.90;99.90
58413;DHT22;44209;52.952;6.790;2024-03-08T08:36:55;3.00;99.90
58413;DHT22;44209;52.952;6.790;2024-03-08T08:39:21;3.00;99.90
58413;DHT22;44209;52.952;6.790;2024-03-08T08:41:48;3.10;99.90
58413;DHT22;44209;52.952;6.790;2024-03-08T08:44:14;3.10;99.90
58413;DHT22;44209;52.952;6.790;2024-03-08T08:46:40;3.20;99.90
58413;DHT22;44209;52.952;6.790;2024-03-08T08:49:06;3.30;99.90
58413;DHT22;44209;52.952;6.790;2024-03-08T08:51:36;3.40;99.90
58413;DHT22;44209;52.952;6.790;2024-03-08T08:54:02;3.40;99.90
58413;DHT22;44209;52.952;6.790;2024-03-08T08:56:28;3.50;99.90
58413;DHT22;44209;52.952;6.790;2024-03-08T08:58:56;3.60;99.90
58413;DHT22;44209;52.952;6.790;2024-03-08T09:01:23;3.70;99.90
58413;DHT22;44209;52.952;6.790;2024-03-08T09:03:49;3.80;99.90
58413;DHT22;44209;52.952;6.790;2024-03-08T09:06:16;3.80;99.90
58413;DHT22;44209;52.952;6.790;2024-03-08T09:08:42;3.90;99.90
58413;DHT22;44209;52.952;6.790;2024-03-08T09:11:09;4.00;99.90
58413;DHT22;44209;52.952;6.790;2024-03-08T09:13:35;4.00;99.90
58413;DHT22;44209;52.952;6.790;2024-03-08T09:16:02;4.10;99.90
58413;DHT22;44209;52.952;6.790;2024-03-08T09:18:31;4.10;99.90
58413;DHT22;44209;52.952;6.790;2024-03-08T09:20:58;4.20;99.90
58413;DHT22;44209;52.952;6.790;2024-03-08T09:23:23;4.30;99.90
58413;DHT22;44209;52.952;6.790;2024-03-08T09:25:51;4.40;99.90
58413;DHT22;44209;52.952;6.790;2024-03-08T09:28:17;4.50;99.90
58413;DHT22;44209;52.952;6.790;2024-03-08T09:30:43;4.60;99.90
58413;DHT22;44209;52.952;6.790;2024-03-08T09:33:10;4.70;99.90
58413;DHT22;44209;52.952;6.790;2024-03-08T09:35:37;4.80;99.90
58413;DHT22;44209;52.952;6.790;2024-03-08T09:38:02;4.80;99.90
58413;DHT22;44209;52.952;6.790;2024-03-08T09:40:30;4.80;99.90
58413;DHT22;44209;52.952;6.790;2024-03-08T09:42:56;4.90;99.90
58413;DHT22;44209;52.952;6.790;2024-03-08T09:45:23;5.00;99.90
58413;DHT22;44209;52.952;6.790;2024-03-08T09:47:50;5.00;99.90
58413;DHT22;44209;52.952;6.790;2024-03-08T09:50:16;5.10;99.90
58413;DHT22;44209;52.952;6.790;2024-03-08T09:52:45;5.10;99.90
58413;DHT22;44209;52.952;6.790;2024-03-08T09:55:12;5.10;99.90
58413;DHT22;44209;52.952;6.790;2024-03-08T09:57:38;5.20;99.90
58413;DHT22;44209;52.952;6.790;2024-03-08T10:00:05;5.30;99.90
58413;DHT22;44209;52.952;6.790;2024-03-08T10:02:47;5.30;99.90
58413;DHT22;44209;52.952;6.790;2024-03-08T10:05:14;5.40;99.90
58413;DHT22;44209;52.952;6.790;2024-03-08T10:07:40;5.40;99.90
58413;DHT22;44209;52.952;6.790;2024-03-08T10:10:06;5.50;99.90
58413;DHT22;44209;52.952;6.790;2024-03-08T10:12:34;5.50;99.90
58413;DHT22;44209;52.952;6.790;2024-03-08T10:15:00;5.50;99.90
58413;DHT22;44209;52.952;6.790;2024-03-08T10:17:26;5.50;99.90
58413;DHT22;44209;52.952;6.790;2024-03-08T10:19:57;5.60;99.90
58413;DHT22;44209;52.952;6.790;2024-03-08T10:22:25;5.70;99.90
58413;DHT22;44209;52.952;6.790;2024-03-08T10:24:51;5.80;99.90
58413;DHT22;44209;52.952;6.790;2024-03-08T10:27:17;5.90;99.90
58413;DHT22;44209;52.952;6.790;2024-03-08T10:29:49;5.90;99.90
58413;DHT22;44209;52.952;6.790;2024-03-08T10:32:17;5.90;99.90
58413;DHT22;44209;52.952;6.790;2024-03-08T10:34:43;5.90;99.90
58413;DHT22;44209;52.952;6.790;2024-03-08T10:37:15;6.00;99.90
58413;DHT22;44209;52.952;6.790;2024-03-08T10:39:46;6.10;99.90
58413;DHT22;44209;52.952;6.790;2024-03-08T10:42:16;6.20;99.90
58413;DHT22;44209;52.952;6.790;2024-03-08T10:45:05;6.20;99.90
58413;DHT22;44209;52.952;6.790;2024-03-08T10:47:38;6.40;99.90
58413;DHT22;44209;52.952;6.790;2024-03-08T10:50:19;6.50;99.90
58413;DHT22;44209;52.952;6.790;2024-03-08T10:52:51;6.60;99.90
58413;DHT22;44209;52.952;6.790;2024-03-08T10:55:18;6.60;99.90
58413;DHT22;44209;52.952;6.790;2024-03-08T10:57:46;6.80;99.90
58413;DHT22;44209;52.952;6.790;2024-03-08T11:00:14;6.80;99.90
58413;DHT22;44209;52.952;6.790;2024-03-08T11:02:44;6.80;99.90
58413;DHT22;44209;52.952;6.790;2024-03-08T11:05:11;6.90;99.90
58413;DHT22;44209;52.952;6.790;2024-03-08T11:07:44;6.90;99.90
58413;DHT22;44209;52.952;6.790;2024-03-08T11:10:20;6.90;99.90
58413;DHT22;44209;52.952;6.790;2024-03-08T11:12:46;7.10;99.90
58413;DHT22;44209;52.952;6.790;2024-03-08T11:15:13;7.20;99.90
58413;DHT22;44209;52.952;6.790;2024-03-08T11:17:46;7.20;99.90
58413;DHT22;44209;52.952;6.790;2024-03-08T11:20:18;7.20;99.90
58413;DHT22;44209;52.952;6.790;2024-03-08T11:22:52;7.30;99.90
58413;DHT22;44209;52.952;6.790;2024-03-08T11:25:36;7.40;99.90
58413;DHT22;44209;52.952;6.790;2024-03-08T11:28:23;7.50;99.90
58413;DHT22;44209;52.952;6.790;2024-03-08T11:31:22;7.60;99.90
58413;DHT22;44209;52.952;6.790;2024-03-08T11:33:48;7.70;99.90
58413;DHT22;44209;52.952;6.790;2024-03-08T11:36:22;7.80;99.90
58413;DHT22;44209;52.952;6.790;2024-03-08T11:38:53;7.80;99.90
58413;DHT22;44209;52.952;6.790;2024-03-08T11:41:22;7.90;99.90
58413;DHT22;44209;52.952;6.790;2024-03-08T11:43:49;7.90;99.90
58413;DHT22;44209;52.952;6.790;2024-03-08T11:46:16;8.00;99.90
58413;DHT22;44209;52.952;6.790;2024-03-08T11:48:44;8.00;99.90
58413;DHT22;44209;52.952;6.790;2024-03-08T11:51:11;8.10;99.90
58413;DHT22;44209;52.952;6.790;2024-03-08T11:53:41;8.20;99.90
58413;DHT22;44209;52.952;6.790;2024-03-08T11:56:11;8.20;99.90
58413;DHT22;44209;52.952;6.790;2024-03-08T11:58:40;8.20;99.90
58413;DHT22;44209;52.952;6.790;2024-03-08T12:01:08;8.20;99.90
58413;DHT22;44209;52.952;6.790;2024-03-08T12:03:41;8.30;99.90
58413;DHT22;44209;52.952;6.790;2024-03-08T12:06:11;8.30;99.90
58413;DHT22;44209;52.952;6.790;2024-03-08T12:08:39;8.40;99.90
58413;DHT22;44209;52.952;6.790;2024-03-08T12:11:05;8.40;99.90
58413;DHT22;44209;52.952;6.790;2024-03-08T12:13:33;8.40;99.90
58413;DHT22;44209;52.952;6.790;2024-03-08T12:16:02;8.40;99.90
58413;DHT22;44209;52.952;6.790;2024-03-08T12:18:38;8.50;99.90
58413;DHT22;44209;52.952;6.790;2024-03-08T12:21:09;8.50;99.90
58413;DHT22;44209;52.952;6.790;2024-03-08T12:23:36;8.60;99.90
58413;DHT22;44209;52.952;6.790;2024-03-08T12:26:16;8.60;99.90
58413;DHT22;44209;52.952;6.790;2024-03-08T12:28:43;8.60;99.90
58413;DHT22;44209;52.952;6.790;2024-03-08T12:31:12;8.60;99.90
58413;DHT22;44209;52.952;6.790;2024-03-08T12:34:00;8.70;99.90
58413;DHT22;44209;52.952;6.790;2024-03-08T12:36:26;8.70;99.90
58413;DHT22;44209;52.952;6.790;2024-03-08T12:38:53;8.80;99.90
58413;DHT22;44209;52.952;6.790;2024-03-08T12:41:21;8.80;99.90
58413;DHT22;44209;52.952;6.790;2024-03-08T12:43:47;8.80;99.90
58413;DHT22;44209;52.952;6.790;2024-03-08T12:46:20;8.90;99.90
58413;DHT22;44209;52.952;6.790;2024-03-08T12:48:52;8.90;99.90
58413;DHT22;44209;52.952;6.790;2024-03-08T12:51:20;9.00;99.90
58413;DHT22;44209;52.952;6.790;2024-03-08T12:53:46;9.00;99.90
58413;DHT22;44209;52.952;6.790;2024-03-08T12:56:14;9.00;99.90
58413;DHT22;44209;52.952;6.790;2024-03-08T12:58:43;9.10;99.90
58413;DHT22;44209;52.952;6.790;2024-03-08T13:01:09;9.20;99.90
58413;DHT22;44209;52.952;6.790;2024-03-08T13:03:35;9.30;99.90
58413;DHT22;44209;52.952;6.790;2024-03-08T13:06:05;9.30;99.90
58413;DHT22;44209;52.952;6.790;2024-03-08T13:08:37;9.30;99.90
58413;DHT22;44209;52.952;6.790;2024-03-08T13:11:05;9.30;99.90
58413;DHT22;44209;52.952;6.790;2024-03-08T13:13:32;9.40;99.90
58413;DHT22;44209;52.952;6.790;2024-03-08T13:16:02;9.40;99.90
58413;DHT22;44209;52.952;6.790;2024-03-08T13:18:27;9.50;99.90
58413;DHT22;44209;52.952;6.790;2024-03-08T13:20:54;9.50;99.90
58413;DHT22;44209;52.952;6.790;2024-03-08T13:23:20;9.50;99.90
58413;DHT22;44209;52.952;6.790;2024-03-08T13:25:46;9.60;99.90
58413;DHT22;44209;52.952;6.790;2024-03-08T13:28:16;9.60;99.90
58413;DHT22;44209;52.952;6.790;2024-03-08T13:30:48;9.70;99.90
58413;DHT22;44209;52.952;6.790;2024-03-08T13:33:14;9.60;99.90
58413;DHT22;44209;52.952;6.790;2024-03-08T13:35:40;9.60;99.90
58413;DHT22;44209;52.952;6.790;2024-03-08T13:38:07;9.60;99.90
58413;DHT22;44209;52.952;6.790;2024-03-08T13:40:34;9.70;99.90
58413;DHT22;44209;52.952;6.790;2024-03-08T13:43:00;9.60;99.90
58413;DHT22;44209;52.952;6.790;2024-03-08T13:45:26;9.60;99.90
58413;DHT22;44209;52.952;6.790;2024-03-08T13:47:53;9.60;99.90
58413;DHT22;44209;52.952;6.790;2024-03-08T13:50:19;9.60;99.90
58413;DHT22;44209;52.952;6.790;2024-03-08T13:52:49;9.60;99.90
58413;DHT22;44209;52.952;6.790;2024-03-08T13:55:19;9.70;99.90
58413;DHT22;44209;52.952;6.790;2024-03-08T13:57:45;9.60;99.90
58413;DHT22;44209;52.952;6.790;2024-03-08T14:00:13;9.70;99.90
58413;DHT22;44209;52.952;6.790;2024-03-08T14:02:40;9.60;99.90
58413;DHT22;44209;52.952;6.790;2024-03-08T14:05:09;9.60;99.90
58413;DHT22;44209;52.952;6.790;2024-03-08T14:07:37;9.60;99.90
58413;DHT22;44209;52.952;6.790;2024-03-08T14:10:03;9.70;99.90
58413;DHT22;44209;52.952;6.790;2024-03-08T14:12:29;9.70;99.90
58413;DHT22;44209;52.952;6.790;2024-03-08T14:14:55;9.70;99.90
58413;DHT22;44209;52.952;6.790;2024-03-08T14:17:25;9.70;99.90
58413;DHT22;44209;52.952;6.790;2024-03-08T14:19:53;9.80;99.90
58413;DHT22;44209;52.952;6.790;2024-03-08T14:22:20;9.70;99.90
58413;DHT22;44209;52.952;6.790;2024-03-08T14:24:46;9.80;99.90
58413;DHT22;44209;52.952;6.790;2024-03-08T14:27:11;9.80;99.90
58413;DHT22;44209;52.952;6.790;2024-03-08T14:29:38;9.80;99.90
58413;DHT22;44209;52.952;6.790;2024-03-08T14:32:05;9.80;99.90
58413;DHT22;44209;52.952;6.790;2024-03-08T14:34:32;9.70;99.90
58413;DHT22;44209;52.952;6.790;2024-03-08T14:36:59;9.70;99.90
58413;DHT22;44209;52.952;6.790;2024-03-08T14:39:26;9.60;99.90
58413;DHT22;44209;52.952;6.790;2024-03-08T14:41:55;9.60;99.90
58413;DHT22;44209;52.952;6.790;2024-03-08T14:44:22;9.70;99.90
58413;DHT22;44209;52.952;6.790;2024-03-08T14:46:55;9.70;99.90
58413;DHT22;44209;52.952;6.790;2024-03-08T14:49:22;9.70;99.90
58413;DHT22;44209;52.952;6.790;2024-03-08T14:51:48;9.60;99.90
58413;DHT22;44209;52.952;6.790;2024-03-08T14:54:14;9.60;99.90
58413;DHT22;44209;52.952;6.790;2024-03-08T14:56:39;9.50;99.90
58413;DHT22;44209;52.952;6.790;2024-03-08T14:59:08;9.40;99.90
58413;DHT22;44209;52.952;6.790;2024-03-08T15:01:35;9.30;99.90
58413;DHT22;44209;52.952;6.790;2024-03-08T15:04:02;9.30;99.90
58413;DHT22;44209;52.952;6.790;2024-03-08T15:06:43;9.30;99.90
58413;DHT22;44209;52.952;6.790;2024-03-08T15:09:11;9.30;99.90
58413;DHT22;44209;52.952;6.790;2024-03-08T15:11:45;9.20;99.90
58413;DHT22;44209;52.952;6.790;2024-03-08T15:14:11;9.20;99.90
58413;DHT22;44209;52.952;6.790;2024-03-08T15:16:40;9.20;99.90
58413;DHT22;44209;52.952;6.790;2024-03-08T15:19:07;9.20;99.90
58413;DHT22;44209;52.952;6.790;2024-03-08T15:21:33;9.20;99.90
58413;DHT22;44209;52.952;6.790;2024-03-08T15:24:00;9.20;99.90
58413;DHT22;44209;52.952;6.790;2024-03-08T15:26:28;9.10;99.90
58413;DHT22;44209;52.952;6.790;2024-03-08T15:28:56;9.10;99.90
58413;DHT22;44209;52.952;6.790;2024-03-08T15:31:22;9.00;99.90
58413;DHT22;44209;52.952;6.790;2024-03-08T15:33:50;9.00;99.90
58413;DHT22;44209;52.952;6.790;2024-03-08T15:36:29;8.90;99.90
58413;DHT22;44209;52.952;6.790;2024-03-08T15:38:59;9.00;99.90
58413;DHT22;44209;52.952;6.790;2024-03-08T15:41:26;8.90;99.90
58413;DHT22;44209;52.952;6.790;2024-03-08T15:43:55;8.90;99.90
58413;DHT22;44209;52.952;6.790;2024-03-08T15:46:21;8.90;99.90
58413;DHT22;44209;52.952;6.790;2024-03-08T15:48:48;8.80;99.90